createdAt,value
2022-10-11T00:00:11.545Z,10.94
2022-10-11T00:01:11.619Z,10.86
2022-10-11T00:02:11.592Z,10.86
2022-10-11T00:03:11.554Z,10.81
2022-10-11T00:04:11.518Z,10.69
2022-10-11T00:05:11.532Z,10.72
2022-10-11T00:06:11.502Z,10.63
2022-10-11T00:07:11.498Z,10.70
2022-10-11T00:08:11.560Z,10.66
2022-10-11T00:09:11.485Z,10.76
2022-10-11T00:10:11.484Z,10.70
2022-10-11T00:11:11.496Z,10.84
2022-10-11T00:12:11.543Z,10.76
2022-10-11T00:13:11.485Z,10.88
2022-10-11T00:14:11.514Z,10.84
2022-10-11T00:15:11.469Z,10.73
2022-10-11T00:16:11.494Z,10.78
2022-10-11T00:17:11.465Z,10.81
2022-10-11T00:18:11.468Z,10.72
2022-10-11T00:19:11.471Z,10.78
2022-10-11T00:20:11.596Z,10.78
2022-10-11T00:21:11.446Z,10.72
2022-10-11T00:22:11.426Z,10.69
2022-10-11T00:23:11.404Z,10.76
2022-10-11T00:24:11.537Z,10.80
2022-10-11T00:25:11.534Z,10.73
2022-10-11T00:26:11.431Z,10.76
2022-10-11T00:27:11.419Z,10.84
2022-10-11T00:28:11.459Z,10.87
2022-10-11T00:29:11.449Z,10.93
2022-10-11T00:30:11.430Z,10.93
2022-10-11T00:31:11.390Z,10.84
2022-10-11T00:32:11.472Z,10.88
2022-10-11T00:33:11.437Z,10.76
2022-10-11T00:34:11.363Z,10.62
2022-10-11T00:35:11.427Z,10.58
2022-10-11T00:36:11.369Z,10.28
2022-10-11T00:37:11.347Z,10.11
2022-10-11T00:38:11.420Z,9.91
2022-10-11T00:39:12.974Z,9.88
2022-10-11T00:40:11.333Z,9.93
2022-10-11T00:41:11.360Z,9.77
2022-10-11T00:42:11.330Z,9.60
2022-10-11T00:43:11.348Z,9.67
2022-10-11T00:44:11.366Z,9.62
2022-10-11T00:45:11.392Z,9.59
2022-10-11T00:46:11.342Z,9.59
2022-10-11T00:47:11.312Z,9.55
2022-10-11T00:48:11.294Z,9.62
2022-10-11T00:49:11.277Z,9.70
2022-10-11T00:50:11.383Z,9.65
2022-10-11T00:51:11.310Z,9.75
2022-10-11T00:52:11.301Z,9.85
2022-10-11T00:53:11.273Z,9.89
2022-10-11T00:54:11.327Z,10.02
2022-10-11T00:55:11.275Z,10.06
2022-10-11T00:56:11.288Z,10.11
2022-10-11T00:57:11.277Z,10.20
2022-10-11T00:58:11.325Z,10.14
2022-10-11T00:59:11.234Z,10.17
2022-10-11T01:00:11.242Z,10.25
2022-10-11T01:01:11.281Z,10.20
2022-10-11T01:02:11.206Z,10.25
2022-10-11T01:03:11.307Z,10.25
2022-10-11T01:04:11.326Z,10.26
2022-10-11T01:05:28.743Z,10.11
2022-10-11T01:06:13.197Z,9.91
2022-10-11T01:07:11.248Z,9.85
2022-10-11T01:08:11.255Z,9.63
2022-10-11T01:09:11.242Z,9.59
2022-10-11T01:10:11.253Z,9.55
2022-10-11T01:11:11.185Z,9.59
2022-10-11T01:12:11.167Z,9.31
2022-10-11T01:13:11.194Z,9.34
2022-10-11T01:14:11.158Z,9.44
2022-10-11T01:15:11.163Z,9.44
2022-10-11T01:16:11.161Z,9.56
2022-10-11T01:17:11.182Z,9.50
2022-10-11T01:18:11.213Z,9.67
2022-10-11T01:19:11.189Z,9.56
2022-10-11T01:20:11.170Z,9.60
2022-10-11T01:21:11.157Z,9.59
2022-10-11T01:22:11.142Z,9.60
2022-10-11T01:23:11.112Z,9.58
2022-10-11T01:24:11.104Z,9.60
2022-10-11T01:25:11.120Z,9.65
2022-10-11T01:26:11.144Z,9.58
2022-10-11T01:27:11.103Z,9.67
2022-10-11T01:28:11.129Z,9.52
2022-10-11T01:29:11.092Z,9.55
2022-10-11T01:30:11.071Z,9.48
2022-10-11T01:31:11.110Z,9.44
2022-10-11T01:32:11.083Z,9.52
2022-10-11T01:33:11.073Z,9.42
2022-10-11T01:34:11.074Z,9.52
2022-10-11T01:35:11.105Z,9.56
2022-10-11T01:36:11.109Z,9.55
2022-10-11T01:37:11.064Z,9.56
2022-10-11T01:38:11.080Z,9.42
2022-10-11T01:39:11.069Z,9.44
2022-10-11T01:40:11.065Z,9.48
2022-10-11T01:41:11.038Z,9.40
2022-10-11T01:42:11.025Z,9.32
2022-10-11T01:43:11.048Z,9.37
2022-10-11T01:44:11.008Z,9.32
2022-10-11T01:45:11.064Z,9.15
2022-10-11T01:46:11.009Z,9.23
2022-10-11T01:47:10.989Z,9.13
2022-10-11T01:48:11.038Z,8.96
2022-10-11T01:49:11.038Z,9.01
2022-10-11T01:50:11.000Z,8.86
2022-10-11T01:51:10.979Z,8.94
2022-10-11T01:52:10.970Z,9.00
2022-10-11T01:53:11.003Z,8.91
2022-10-11T01:54:10.978Z,8.88
2022-10-11T01:55:10.986Z,8.96
2022-10-11T01:56:10.980Z,8.85
2022-10-11T01:57:10.974Z,8.86
2022-10-11T01:58:11.020Z,8.85
2022-10-11T01:59:10.973Z,8.93
2022-10-11T02:00:10.954Z,8.76
2022-10-11T02:01:11.021Z,8.65
2022-10-11T02:02:10.931Z,8.58
2022-10-11T02:03:10.930Z,8.50
2022-10-11T02:04:10.960Z,8.60
2022-10-11T02:05:10.922Z,8.55
2022-10-11T02:06:10.944Z,8.58
2022-10-11T02:07:10.927Z,8.52
2022-10-11T02:08:10.913Z,8.20
2022-10-11T02:09:10.938Z,7.96
2022-10-11T02:10:10.892Z,7.82
2022-10-11T02:11:10.939Z,7.82
2022-10-11T02:12:10.906Z,7.91
2022-10-11T02:13:10.903Z,7.99
2022-10-11T02:14:10.965Z,7.95
2022-10-11T02:15:10.899Z,8.17
2022-10-11T02:16:10.899Z,8.18
2022-10-11T02:17:10.915Z,8.25
2022-10-11T02:18:10.867Z,8.18
2022-10-11T02:19:10.911Z,8.29
2022-10-11T02:20:10.891Z,8.28
2022-10-11T02:21:10.877Z,8.45
2022-10-11T02:22:10.858Z,8.45
2022-10-11T02:23:10.825Z,8.43
2022-10-11T02:24:10.873Z,8.47
2022-10-11T02:25:10.865Z,8.46
2022-10-11T02:26:11.850Z,8.50
2022-10-11T02:27:10.878Z,8.47
2022-10-11T02:28:10.836Z,8.55
2022-10-11T02:29:10.816Z,8.57
2022-10-11T02:30:10.805Z,8.60
2022-10-11T02:31:10.814Z,8.63
2022-10-11T02:32:10.823Z,8.60
2022-10-11T02:33:10.823Z,8.57
2022-10-11T02:34:10.781Z,8.46
2022-10-11T02:35:10.783Z,8.20
2022-10-11T02:36:10.801Z,7.52
2022-10-11T02:37:10.818Z,6.99
2022-10-11T02:38:10.786Z,6.94
2022-10-11T02:39:10.753Z,6.73
2022-10-11T02:40:10.770Z,6.72
2022-10-11T02:41:10.759Z,6.51
2022-10-11T02:42:10.748Z,6.46
2022-10-11T02:43:10.736Z,6.45
2022-10-11T02:44:10.765Z,6.65
2022-10-11T02:45:10.757Z,6.69
2022-10-11T02:46:10.739Z,6.82
2022-10-11T02:47:10.719Z,6.97
2022-10-11T02:48:10.758Z,7.08
2022-10-11T02:49:10.728Z,7.09
2022-10-11T02:50:10.743Z,7.27
2022-10-11T02:51:10.718Z,7.29
2022-10-11T02:52:10.697Z,7.42
2022-10-11T02:53:10.736Z,7.29
2022-10-11T02:54:10.714Z,7.11
2022-10-11T02:55:10.693Z,7.01
2022-10-11T02:56:10.701Z,6.97
2022-10-11T02:57:10.686Z,6.94
2022-10-11T02:58:10.683Z,6.97
2022-10-11T02:59:10.670Z,6.89
2022-10-11T03:00:10.698Z,6.87
2022-10-11T03:01:10.730Z,6.78
2022-10-11T03:02:10.647Z,6.90
2022-10-11T03:03:10.641Z,6.94
2022-10-11T03:04:10.662Z,6.97
2022-10-11T03:05:10.662Z,6.78
2022-10-11T03:06:10.663Z,6.71
2022-10-11T03:07:10.646Z,6.79
2022-10-11T03:08:10.673Z,6.60
2022-10-11T03:09:10.667Z,6.65
2022-10-11T03:10:10.623Z,6.55
2022-10-11T03:11:10.603Z,6.54
2022-10-11T03:12:10.635Z,6.65
2022-10-11T03:13:12.839Z,6.69
2022-10-11T03:14:10.632Z,6.79
2022-10-11T03:15:10.593Z,7.01
2022-10-11T03:16:11.050Z,7.12
2022-10-11T03:17:34.404Z,7.18
2022-10-11T03:18:12.570Z,7.27
2022-10-11T03:19:10.567Z,7.36
2022-10-11T03:20:10.601Z,7.30
2022-10-11T03:21:10.545Z,7.45
2022-10-11T03:22:10.688Z,7.45
2022-10-11T03:23:10.568Z,7.45
2022-10-11T03:24:10.549Z,7.18
2022-10-11T03:25:10.542Z,7.09
2022-10-11T03:26:10.521Z,6.81
2022-10-11T03:27:10.548Z,6.63
2022-10-11T03:28:10.564Z,6.39
2022-10-11T03:29:10.510Z,6.21
2022-10-11T03:30:10.502Z,6.03
2022-10-11T03:31:10.518Z,6.03
2022-10-11T03:32:10.512Z,6.08
2022-10-11T03:33:10.502Z,6.11
2022-10-11T03:34:10.498Z,6.20
2022-10-11T03:35:10.496Z,6.39
2022-10-11T03:36:10.489Z,6.42
2022-10-11T03:37:10.466Z,6.55
2022-10-11T03:38:12.952Z,6.69
2022-10-11T03:39:11.531Z,6.86
2022-10-11T03:40:10.448Z,6.81
2022-10-11T03:41:10.473Z,6.94
2022-10-11T03:42:10.431Z,7.01
2022-10-11T03:43:10.440Z,7.09
2022-10-11T03:44:10.424Z,7.08
2022-10-11T03:45:10.423Z,7.07
2022-10-11T03:46:10.475Z,7.11
2022-10-11T03:47:10.407Z,7.16
2022-10-11T03:48:10.406Z,7.11
2022-10-11T03:49:10.401Z,7.15
2022-10-11T03:50:10.389Z,7.26
2022-10-11T03:51:10.434Z,7.19
2022-10-11T03:52:10.404Z,7.15
2022-10-11T03:53:10.417Z,7.29
2022-10-11T03:54:10.390Z,7.11
2022-10-11T03:55:10.423Z,7.14
2022-10-11T03:56:10.691Z,7.05
2022-10-11T03:57:10.355Z,7.11
2022-10-11T03:58:10.363Z,6.99
2022-10-11T03:59:10.386Z,6.83
2022-10-11T04:00:10.403Z,6.78
2022-10-11T04:01:10.341Z,6.60
2022-10-11T04:02:10.433Z,6.13
2022-10-11T04:03:10.348Z,5.90
2022-10-11T04:04:10.348Z,5.74
2022-10-11T04:05:10.379Z,5.56
2022-10-11T04:06:10.347Z,5.67
2022-10-11T04:07:10.302Z,5.83
2022-10-11T04:08:12.260Z,5.84
2022-10-11T04:09:11.315Z,5.75
2022-10-11T04:10:10.301Z,5.59
2022-10-11T04:11:10.317Z,5.49
2022-10-11T04:12:10.310Z,5.63
2022-10-11T04:13:10.285Z,5.80
2022-10-11T04:14:10.271Z,5.65
2022-10-11T04:15:10.314Z,5.55
2022-10-11T04:16:10.243Z,5.58
2022-10-11T04:17:10.327Z,5.65
2022-10-11T04:18:10.246Z,5.74
2022-10-11T04:19:10.285Z,5.74
2022-10-11T04:20:10.256Z,5.69
2022-10-11T04:21:10.254Z,5.67
2022-10-11T04:22:10.277Z,5.73
2022-10-11T04:23:10.269Z,5.73
2022-10-11T04:24:10.251Z,5.62
2022-10-11T04:25:10.380Z,5.74
2022-10-11T04:26:10.402Z,5.55
2022-10-11T04:27:10.275Z,5.49
2022-10-11T04:28:10.294Z,5.59
2022-10-11T04:29:10.234Z,5.56
2022-10-11T04:30:10.199Z,5.58
2022-10-11T04:31:10.213Z,5.51
2022-10-11T04:32:10.191Z,5.49
2022-10-11T04:33:10.208Z,5.47
2022-10-11T04:34:10.199Z,5.42
2022-10-11T04:35:10.231Z,5.60
2022-10-11T04:36:10.166Z,5.70
2022-10-11T04:37:10.159Z,5.67
2022-10-11T04:38:10.150Z,5.67
2022-10-11T04:39:10.184Z,5.75
2022-10-11T04:40:10.157Z,5.74
2022-10-11T04:41:10.149Z,5.73
2022-10-11T04:42:10.117Z,5.65
2022-10-11T04:43:10.114Z,5.55
2022-10-11T04:44:10.111Z,5.65
2022-10-11T04:45:10.102Z,5.74
2022-10-11T04:46:10.973Z,5.73
2022-10-11T04:47:10.107Z,5.87
2022-10-11T04:48:10.080Z,5.87
2022-10-11T04:49:10.096Z,5.87
2022-10-11T04:50:10.092Z,5.75
2022-10-11T04:51:10.121Z,5.74
2022-10-11T04:52:10.076Z,5.90
2022-10-11T04:53:10.078Z,6.05
2022-10-11T04:54:10.050Z,6.21
2022-10-11T04:55:10.081Z,6.35
2022-10-11T04:56:10.223Z,6.33
2022-10-11T04:57:10.068Z,6.36
2022-10-11T04:58:10.057Z,6.51
2022-10-11T04:59:10.064Z,6.60
2022-10-11T05:00:10.017Z,6.65
2022-10-11T05:01:10.006Z,6.69
2022-10-11T05:02:10.088Z,6.73
2022-10-11T05:03:10.019Z,6.64
2022-10-11T05:04:09.998Z,6.55
2022-10-11T05:05:10.051Z,6.08
2022-10-11T05:06:10.271Z,5.92
2022-10-11T05:07:09.976Z,5.83
2022-10-11T05:08:10.027Z,5.90
2022-10-11T05:09:10.002Z,5.88
2022-10-11T05:10:09.977Z,5.95
2022-10-11T05:11:09.961Z,6.08
2022-10-11T05:12:09.964Z,6.14
2022-10-11T05:13:09.978Z,6.27
2022-10-11T05:14:09.954Z,6.33
2022-10-11T05:15:09.943Z,6.40
2022-10-11T05:16:11.347Z,6.40
2022-10-11T05:17:10.968Z,6.53
2022-10-11T05:18:09.993Z,6.61
2022-10-11T05:19:09.927Z,6.65
2022-10-11T05:20:09.929Z,6.71
2022-10-11T05:21:09.946Z,6.63
2022-10-11T05:22:09.951Z,6.76
2022-10-11T05:23:09.914Z,6.79
2022-10-11T05:24:09.905Z,6.94
2022-10-11T05:25:09.895Z,6.91
2022-10-11T05:26:10.075Z,6.86
2022-10-11T05:27:10.901Z,6.90
2022-10-11T05:28:09.935Z,6.82
2022-10-11T05:29:09.891Z,6.96
2022-10-11T05:30:09.878Z,6.93
2022-10-11T05:31:09.899Z,6.96
2022-10-11T05:32:09.866Z,7.00
2022-10-11T05:33:09.844Z,7.00
2022-10-11T05:34:09.836Z,7.00
2022-10-11T05:35:09.906Z,6.94
2022-10-11T05:36:09.980Z,6.94
2022-10-11T05:37:09.873Z,6.82
2022-10-11T05:38:09.828Z,6.72
2022-10-11T05:39:09.820Z,6.20
2022-10-11T05:40:09.815Z,5.88
2022-10-11T05:41:09.814Z,5.85
2022-10-11T05:42:10.217Z,5.69
2022-10-11T05:43:10.876Z,5.84
2022-10-11T05:44:09.792Z,5.90
2022-10-11T05:45:09.839Z,5.93
2022-10-11T05:46:09.836Z,5.96
2022-10-11T05:47:09.797Z,6.06
2022-10-11T05:48:09.774Z,6.24
2022-10-11T05:49:09.789Z,6.27
2022-10-11T05:50:09.754Z,6.32
2022-10-11T05:51:09.768Z,6.53
2022-10-11T05:52:09.885Z,6.55
2022-10-11T05:53:09.781Z,6.64
2022-10-11T05:54:09.740Z,6.63
2022-10-11T05:55:09.830Z,6.68
2022-10-11T05:56:09.754Z,6.79
2022-10-11T05:57:09.733Z,6.76
2022-10-11T05:58:09.743Z,6.69
2022-10-11T05:59:09.918Z,6.76
2022-10-11T06:00:09.704Z,6.79
2022-10-11T06:01:09.809Z,6.63
2022-10-11T06:02:09.715Z,6.30
2022-10-11T06:03:09.702Z,6.05
2022-10-11T06:04:09.755Z,5.90
2022-10-11T06:05:09.690Z,5.92
2022-10-11T06:06:10.204Z,6.11
2022-10-11T06:07:09.739Z,6.11
2022-10-11T06:08:09.668Z,6.14
2022-10-11T06:09:09.666Z,6.11
2022-10-11T06:10:09.689Z,5.99
2022-10-11T06:11:12.012Z,5.95
2022-10-11T06:12:11.313Z,6.14
2022-10-11T06:13:09.628Z,6.06
2022-10-11T06:14:09.656Z,6.16
2022-10-11T06:15:09.643Z,6.17
2022-10-11T06:16:09.693Z,6.16
2022-10-11T06:17:09.600Z,6.25
2022-10-11T06:18:09.624Z,6.30
2022-10-11T06:19:09.632Z,6.36
2022-10-11T06:20:09.595Z,6.39
2022-10-11T06:21:09.582Z,6.55
2022-10-11T06:22:09.602Z,6.57
2022-10-11T06:23:09.623Z,6.57
2022-10-11T06:24:09.610Z,6.57
2022-10-11T06:25:09.579Z,6.69
2022-10-11T06:26:10.197Z,6.68
2022-10-11T06:27:09.574Z,6.71
2022-10-11T06:28:09.742Z,6.68
2022-10-11T06:29:09.624Z,6.58
2022-10-11T06:30:09.551Z,6.61
2022-10-11T06:31:09.547Z,6.76
2022-10-11T06:32:09.585Z,6.81
2022-10-11T06:33:09.627Z,6.75
2022-10-11T06:34:09.940Z,6.71
2022-10-11T06:35:09.536Z,6.71
2022-10-11T06:36:09.758Z,6.73
2022-10-11T06:37:09.504Z,6.79
2022-10-11T06:38:09.568Z,6.96
2022-10-11T06:39:09.513Z,6.99
2022-10-11T06:40:09.505Z,7.04
2022-10-11T06:41:09.480Z,7.11
2022-10-11T06:42:09.502Z,7.27
2022-10-11T06:43:09.502Z,7.27
2022-10-11T06:44:13.923Z,7.30
2022-10-11T06:45:10.477Z,7.45
2022-10-11T06:46:09.450Z,7.44
2022-10-11T06:47:09.490Z,7.41
2022-10-11T06:48:09.449Z,7.57
2022-10-11T06:49:09.445Z,7.69
2022-10-11T06:50:09.438Z,7.69
2022-10-11T06:51:09.441Z,7.77
2022-10-11T06:52:09.411Z,7.86
2022-10-11T06:53:09.417Z,7.99
2022-10-11T06:54:09.432Z,7.94
2022-10-11T06:55:09.426Z,8.14
2022-10-11T06:56:09.753Z,8.03
2022-10-11T06:57:09.433Z,8.04
2022-10-11T06:58:09.412Z,8.14
2022-10-11T06:59:09.397Z,8.18
2022-10-11T07:00:12.605Z,7.82
2022-10-11T07:01:10.444Z,7.51
2022-10-11T07:02:09.445Z,7.54
2022-10-11T07:03:09.475Z,7.54
2022-10-11T07:04:09.431Z,7.70
2022-10-11T07:05:09.506Z,7.70
2022-10-11T07:06:10.063Z,7.81
2022-10-11T07:07:09.471Z,7.73
2022-10-11T07:08:09.400Z,7.73
2022-10-11T07:09:09.390Z,7.76
2022-10-11T07:10:09.691Z,7.86
2022-10-11T07:11:09.351Z,7.95
2022-10-11T07:12:09.818Z,8.07
2022-10-11T07:13:11.546Z,8.07
2022-10-11T07:14:10.326Z,8.06
2022-10-11T07:15:09.312Z,8.14
2022-10-11T07:16:09.745Z,8.17
2022-10-11T07:17:09.355Z,8.12
2022-10-11T07:18:09.329Z,8.21
2022-10-11T07:19:09.399Z,8.24
2022-10-11T07:20:09.334Z,8.27
2022-10-11T07:21:09.344Z,8.40
2022-10-11T07:22:09.297Z,8.43
2022-10-11T07:23:09.296Z,8.40
2022-10-11T07:24:09.342Z,8.40
2022-10-11T07:25:09.331Z,8.49
2022-10-11T07:26:09.827Z,8.42
2022-10-11T07:27:09.378Z,8.45
2022-10-11T07:28:09.325Z,8.57
2022-10-11T07:29:09.287Z,8.61
2022-10-11T07:30:09.240Z,8.75
2022-10-11T07:31:09.234Z,8.73
2022-10-11T07:32:09.251Z,8.68
2022-10-11T07:33:09.392Z,8.75
2022-10-11T07:34:09.233Z,8.78
2022-10-11T07:35:09.849Z,8.91
2022-10-11T07:36:09.454Z,8.94
2022-10-11T07:37:09.250Z,9.03
2022-10-11T07:38:09.302Z,9.08
2022-10-11T07:39:09.193Z,9.19
2022-10-11T07:40:09.200Z,9.31
2022-10-11T07:41:09.193Z,9.41
2022-10-11T07:42:09.233Z,9.48
2022-10-11T07:43:09.209Z,9.53
2022-10-11T07:44:09.171Z,9.62
2022-10-11T07:45:09.164Z,9.74
2022-10-11T07:46:09.920Z,9.60
2022-10-11T07:47:11.219Z,9.63
2022-10-11T07:48:10.206Z,9.42
2022-10-11T07:49:09.152Z,9.40
2022-10-11T07:50:09.162Z,9.42
2022-10-11T07:51:09.131Z,9.53
2022-10-11T07:52:09.154Z,9.53
2022-10-11T07:53:09.179Z,9.32
2022-10-11T07:54:09.340Z,9.44
2022-10-11T07:55:09.117Z,9.35
2022-10-11T07:56:11.404Z,9.42
2022-10-11T07:57:09.152Z,9.63
2022-10-11T07:58:09.207Z,9.81
2022-10-11T07:59:09.104Z,9.81
2022-10-11T08:00:09.272Z,9.93
2022-10-11T08:01:09.173Z,10.02
2022-10-11T08:02:09.115Z,9.86
2022-10-11T08:03:09.131Z,9.95
2022-10-11T08:04:09.075Z,10.04
2022-10-11T08:05:09.098Z,10.09
2022-10-11T08:06:09.675Z,9.88
2022-10-11T08:07:09.131Z,9.89
2022-10-11T08:08:09.094Z,9.86
2022-10-11T08:09:09.076Z,9.86
2022-10-11T08:10:09.122Z,9.91
2022-10-11T08:11:09.072Z,9.71
2022-10-11T08:12:09.037Z,9.88
2022-10-11T08:13:09.074Z,9.81
2022-10-11T08:14:09.144Z,9.91
2022-10-11T08:15:09.054Z,9.77
2022-10-11T08:16:09.067Z,9.77
2022-10-11T08:17:09.017Z,9.62
2022-10-11T08:18:09.009Z,9.58
2022-10-11T08:19:09.013Z,9.34
2022-10-11T08:20:09.042Z,9.22
2022-10-11T08:21:09.019Z,9.27
2022-10-11T08:22:08.995Z,9.40
2022-10-11T08:23:09.996Z,9.45
2022-10-11T08:24:09.024Z,9.55
2022-10-11T08:25:08.989Z,9.78
2022-10-11T08:26:09.245Z,9.78
2022-10-11T08:27:09.007Z,9.77
2022-10-11T08:28:09.105Z,9.74
2022-10-11T08:29:08.959Z,9.53
2022-10-11T08:30:08.977Z,9.56
2022-10-11T08:31:09.003Z,9.62
2022-10-11T08:32:08.957Z,9.89
2022-10-11T08:33:08.988Z,9.77
2022-10-11T08:34:08.984Z,9.74
2022-10-11T08:35:08.960Z,9.74
2022-10-11T08:36:09.689Z,9.70
2022-10-11T08:37:08.956Z,9.73
2022-10-11T08:38:08.942Z,9.63
2022-10-11T08:39:08.913Z,9.53
2022-10-11T08:40:09.016Z,9.68
2022-10-11T08:41:08.943Z,9.83
2022-10-11T08:42:09.043Z,9.75
2022-10-11T08:43:08.992Z,9.81
2022-10-11T08:44:08.940Z,9.99
2022-10-11T08:45:11.447Z,10.01
2022-10-11T08:46:10.063Z,10.06
2022-10-11T08:47:08.958Z,9.89
2022-10-11T08:48:08.885Z,10.04
2022-10-11T08:49:08.879Z,10.07
2022-10-11T08:50:08.897Z,10.04
2022-10-11T08:51:08.922Z,10.16
2022-10-11T08:52:08.876Z,10.32
2022-10-11T08:53:08.965Z,10.49
2022-10-11T08:54:08.879Z,10.47
2022-10-11T08:55:08.877Z,10.54
2022-10-11T08:56:09.398Z,10.52
2022-10-11T08:57:08.873Z,10.28
2022-10-11T08:58:08.873Z,10.44
2022-10-11T08:59:08.847Z,10.47
2022-10-11T09:00:08.863Z,10.54
2022-10-11T09:01:08.938Z,10.58
2022-10-11T09:02:08.818Z,10.43
2022-10-11T09:03:09.700Z,10.51
2022-10-11T09:04:09.839Z,10.47
2022-10-11T09:05:08.863Z,10.49
2022-10-11T09:06:09.343Z,10.46
2022-10-11T09:07:08.801Z,10.52
2022-10-11T09:08:08.781Z,10.72
2022-10-11T09:09:08.789Z,10.60
2022-10-11T09:10:08.813Z,10.68
2022-10-11T09:11:08.831Z,10.68
2022-10-11T09:12:08.807Z,10.70
2022-10-11T09:13:08.785Z,10.83
2022-10-11T09:14:08.774Z,10.75
2022-10-11T09:15:08.776Z,10.78
2022-10-11T09:16:08.944Z,10.72
2022-10-11T09:17:08.849Z,10.70
2022-10-11T09:18:08.752Z,10.70
2022-10-11T09:19:08.767Z,10.63
2022-10-11T09:20:08.746Z,10.75
2022-10-11T09:21:08.738Z,10.78
2022-10-11T09:22:08.760Z,10.90
2022-10-11T09:23:08.706Z,10.95
2022-10-11T09:24:08.741Z,11.06
2022-10-11T09:25:09.461Z,11.20
2022-10-11T09:26:09.025Z,11.28
2022-10-11T09:27:08.739Z,11.36
2022-10-11T09:28:08.792Z,11.23
2022-10-11T09:29:08.776Z,11.02
2022-10-11T09:30:08.704Z,11.02
2022-10-11T09:31:08.699Z,10.91
2022-10-11T09:32:08.666Z,11.01
2022-10-11T09:33:08.728Z,11.02
2022-10-11T09:34:09.723Z,10.93
2022-10-11T09:35:09.397Z,10.86
2022-10-11T09:36:08.846Z,10.86
2022-10-11T09:37:08.635Z,10.98
2022-10-11T09:38:08.671Z,11.02
2022-10-11T09:39:08.660Z,11.08
2022-10-11T09:40:08.616Z,10.98
2022-10-11T09:41:08.641Z,11.01
2022-10-11T09:42:08.609Z,11.09
2022-10-11T09:43:08.633Z,11.05
2022-10-11T09:44:08.697Z,11.05
2022-10-11T09:45:08.620Z,10.98
2022-10-11T09:46:08.811Z,10.94
2022-10-11T09:47:08.589Z,10.83
2022-10-11T09:48:08.626Z,10.93
2022-10-11T09:49:08.657Z,11.16
2022-10-11T09:50:08.578Z,11.21
2022-10-11T09:51:08.688Z,11.39
2022-10-11T09:52:08.581Z,11.49
2022-10-11T09:53:08.605Z,11.33
2022-10-11T09:54:08.582Z,10.80
2022-10-11T09:55:08.541Z,10.51
2022-10-11T09:56:09.325Z,10.51
2022-10-11T09:57:08.530Z,10.60
2022-10-11T09:58:08.559Z,10.58
2022-10-11T09:59:08.549Z,10.57
2022-10-11T10:00:08.532Z,10.52
2022-10-11T10:01:08.634Z,10.68
2022-10-11T10:02:08.614Z,10.75
2022-10-11T10:03:08.524Z,10.75
2022-10-11T10:04:08.495Z,10.90
2022-10-11T10:05:08.489Z,10.81
2022-10-11T10:06:09.085Z,10.78
2022-10-11T10:07:08.521Z,10.88
2022-10-11T10:08:08.522Z,11.11
2022-10-11T10:09:08.557Z,11.27
2022-10-11T10:10:08.485Z,11.16
2022-10-11T10:11:08.457Z,11.30
2022-10-11T10:12:08.442Z,11.46
2022-10-11T10:13:08.476Z,11.54
2022-10-11T10:14:08.447Z,11.59
2022-10-11T10:15:08.445Z,11.59
2022-10-11T10:16:08.873Z,11.57
2022-10-11T10:17:08.438Z,11.70
2022-10-11T10:18:08.460Z,11.69
2022-10-11T10:19:08.451Z,11.62
2022-10-11T10:20:08.397Z,11.77
2022-10-11T10:21:08.427Z,11.88
2022-10-11T10:22:08.417Z,11.97
2022-10-11T10:23:08.442Z,12.16
2022-10-11T10:24:09.395Z,12.41
2022-10-11T10:25:08.374Z,12.51
2022-10-11T10:26:08.778Z,12.52
2022-10-11T10:27:08.359Z,12.63
2022-10-11T10:28:08.395Z,12.62
2022-10-11T10:29:08.359Z,12.76
2022-10-11T10:30:08.347Z,12.58
2022-10-11T10:31:08.334Z,12.54
2022-10-11T10:32:14.393Z,12.41
2022-10-11T10:33:10.346Z,12.37
2022-10-11T10:34:08.336Z,12.48
2022-10-11T10:35:08.349Z,12.43
2022-10-11T10:36:09.157Z,12.38
2022-10-11T10:37:08.298Z,12.52
2022-10-11T10:38:08.300Z,12.33
2022-10-11T10:39:08.341Z,12.22
2022-10-11T10:40:08.290Z,12.21
2022-10-11T10:41:08.289Z,12.29
2022-10-11T10:42:08.266Z,12.49
2022-10-11T10:43:08.250Z,12.67
2022-10-11T10:44:08.279Z,12.66
2022-10-11T10:45:12.158Z,12.58
2022-10-11T10:46:09.584Z,12.44
2022-10-11T10:47:08.245Z,12.63
2022-10-11T10:48:08.271Z,12.67
2022-10-11T10:49:41.158Z,12.71
2022-10-11T10:50:10.236Z,12.87
2022-10-11T10:51:10.444Z,12.63
2022-10-11T10:52:09.196Z,12.40
2022-10-11T10:53:08.186Z,12.40
2022-10-11T10:54:08.226Z,12.52
2022-10-11T10:55:08.205Z,12.63
2022-10-11T10:56:08.913Z,12.79
2022-10-11T10:57:08.181Z,12.73
2022-10-11T10:58:08.150Z,12.92
2022-10-11T10:59:08.188Z,13.03
2022-10-11T11:00:08.151Z,12.94
2022-10-11T11:01:08.141Z,12.98
2022-10-11T11:02:34.998Z,13.12
2022-10-11T11:03:10.110Z,13.01
2022-10-11T11:04:08.138Z,13.09
2022-10-11T11:05:08.107Z,12.99
2022-10-11T11:06:08.449Z,12.92
2022-10-11T11:07:08.086Z,13.10
2022-10-11T11:08:08.102Z,13.16
2022-10-11T11:09:08.114Z,13.06
2022-10-11T11:10:08.067Z,12.85
2022-10-11T11:11:08.081Z,12.89
2022-10-11T11:12:08.105Z,12.74
2022-10-11T11:13:08.053Z,12.67
2022-10-11T11:14:08.091Z,12.67
2022-10-11T11:15:08.075Z,12.74
2022-10-11T11:16:08.362Z,12.85
2022-10-11T11:17:08.041Z,13.03
2022-10-11T11:18:08.039Z,13.25
2022-10-11T11:19:08.019Z,13.43
2022-10-11T11:20:08.025Z,13.51
2022-10-11T11:21:08.114Z,13.69
2022-10-11T11:22:07.998Z,13.76
2022-10-11T11:23:08.169Z,14.02
2022-10-11T11:24:07.989Z,14.11
2022-10-11T11:25:07.971Z,14.19
2022-10-11T11:26:08.497Z,14.41
2022-10-11T11:27:08.011Z,14.36
2022-10-11T11:28:08.022Z,14.19
2022-10-11T11:29:07.946Z,14.42
2022-10-11T11:30:07.932Z,14.13
2022-10-11T11:31:08.460Z,14.21
2022-10-11T11:32:07.947Z,14.27
2022-10-11T11:33:07.917Z,14.17
2022-10-11T11:34:07.909Z,14.01
2022-10-11T11:35:07.921Z,13.81
2022-10-11T11:36:08.206Z,13.46
2022-10-11T11:37:08.037Z,13.32
2022-10-11T11:38:07.850Z,12.94
2022-10-11T11:39:07.876Z,12.98
2022-10-11T11:40:07.847Z,13.39
2022-10-11T11:41:08.381Z,13.57
2022-10-11T11:42:07.855Z,13.51
2022-10-11T11:43:07.847Z,13.76
2022-10-11T11:44:07.848Z,13.73
2022-10-11T11:45:07.800Z,14.12
2022-10-11T11:46:07.841Z,14.60
2022-10-11T11:47:07.812Z,14.95
2022-10-11T11:48:07.882Z,15.13
2022-10-11T11:49:12.773Z,15.05
2022-10-11T11:50:09.791Z,14.80
2022-10-11T11:51:08.141Z,14.19
2022-10-11T11:52:07.783Z,13.87
2022-10-11T11:53:07.789Z,13.38
2022-10-11T11:54:07.764Z,13.32
2022-10-11T11:55:07.770Z,13.61
2022-10-11T11:56:07.757Z,13.75
2022-10-11T11:57:07.729Z,13.66
2022-10-11T11:58:07.728Z,13.57
2022-10-11T11:59:07.729Z,13.55
2022-10-11T12:00:07.715Z,13.96
2022-10-11T12:01:08.173Z,14.29
2022-10-11T12:02:07.724Z,14.59
2022-10-11T12:03:07.674Z,14.56
2022-10-11T12:04:07.667Z,14.72
2022-10-11T12:05:07.696Z,14.20
2022-10-11T12:06:07.746Z,13.90
2022-10-11T12:07:22.654Z,13.86
2022-10-11T12:08:09.668Z,13.46
2022-10-11T12:09:07.712Z,13.27
2022-10-11T12:10:07.734Z,13.06
2022-10-11T12:11:08.859Z,12.84
2022-10-11T12:12:08.620Z,12.91
2022-10-11T12:13:07.613Z,12.92
2022-10-11T12:14:07.636Z,12.81
2022-10-11T12:15:07.616Z,12.73
2022-10-11T12:16:07.594Z,12.94
2022-10-11T12:17:07.620Z,12.99
2022-10-11T12:18:07.565Z,13.21
2022-10-11T12:19:07.611Z,13.46
2022-10-11T12:20:07.557Z,13.54
2022-10-11T12:21:07.870Z,13.94
2022-10-11T12:22:07.632Z,14.01
2022-10-11T12:23:07.541Z,13.71
2022-10-11T12:24:07.596Z,13.59
2022-10-11T12:25:07.546Z,13.48
2022-10-11T12:26:07.499Z,13.59
2022-10-11T12:27:07.510Z,13.54
2022-10-11T12:28:07.603Z,13.62
2022-10-11T12:29:07.542Z,13.83
2022-10-11T12:30:07.504Z,13.98
2022-10-11T12:31:07.905Z,14.02
2022-10-11T12:32:07.512Z,14.04
2022-10-11T12:33:07.467Z,14.01
2022-10-11T12:34:07.458Z,13.96
2022-10-11T12:35:07.582Z,13.93
2022-10-11T12:36:08.540Z,14.06
2022-10-11T12:37:07.463Z,14.08
2022-10-11T12:38:07.432Z,14.21
2022-10-11T12:39:07.504Z,13.79
2022-10-11T12:40:07.416Z,13.90
2022-10-11T12:41:07.465Z,13.98
2022-10-11T12:42:07.415Z,13.98
2022-10-11T12:43:07.380Z,14.12
2022-10-11T12:44:07.379Z,14.17
2022-10-11T12:45:07.427Z,14.09
2022-10-11T12:46:07.872Z,14.06
2022-10-11T12:47:07.475Z,13.98
2022-10-11T12:48:07.373Z,13.79
2022-10-11T12:49:07.406Z,13.86
2022-10-11T12:50:07.447Z,13.75
2022-10-11T12:51:07.326Z,13.69
2022-10-11T12:52:07.316Z,13.81
2022-10-11T12:53:07.346Z,13.93
2022-10-11T12:54:26.122Z,13.96
2022-10-11T12:55:09.310Z,14.16
2022-10-11T12:56:07.829Z,14.24
2022-10-11T12:57:11.679Z,14.44
2022-10-11T12:58:08.278Z,14.38
2022-10-11T12:59:07.267Z,14.27
2022-10-11T13:00:07.257Z,14.38
2022-10-11T13:01:07.364Z,14.24
2022-10-11T13:02:07.260Z,14.41
2022-10-11T13:03:07.264Z,14.24
2022-10-11T13:04:07.234Z,14.30
2022-10-11T13:05:07.254Z,14.56
2022-10-11T13:06:07.589Z,14.80
2022-10-11T13:07:07.215Z,15.01